KOAJ/OAJ METAR and TAF weather

Enter ICAO airport designator
Station Type Date Time Source
KOAJ METAR 2022/01/26 06:56 UTC NOAA

KOAJ 260656Z AUTO 02006KT 10SM CLR 01/01 A3007 RMK AO2 SLP185 T00060006 FZRANO


Station Type Date Time Source
KOAJ Decoded METAR 2022/01/26 06:56 UTC NOAA

Jacksonville, Albert J Ellis Airport, NC, United States (KOAJ) 34-50N 077-37W
Jan 26, 2022 - 01:56 AM EST / 2022.01.26 0656 UTC
Wind: from the NNE (020 degrees) at 7 MPH (6 KT):0
Visibility: 10 mile(s):0
Sky conditions: clear
Temperature: 33.1 F (0.6 C)
Windchill: 26 F (-3 C):1
Dew Point: 33.1 F (0.6 C)
Relative Humidity: 100%
Pressure (altimeter): 30.07 in. Hg (1018 hPa)
ob: KOAJ 260656Z AUTO 02006KT 10SM CLR 01/01 A3007 RMK AO2 SLP185 T00060006 FZRANO
cycle: 7

Station Type Date Time Source
KOAJ TAF 2022/01/26 06:40 UTC NOAA

TAF KOAJ 260538Z 2606/2706 00000KT P6SM FEW200
FM260800 03009KT P6SM FEW200
FM261300 02010G15KT P6SM FEW070
FM270000 02008KT P6SM FEW250
AMD LTD TO CLD VIS AND WIND

Example: see airport list